Time;durP1;ratioP1;P1;durP2;ratioP2;P2;SDS_P1;SDS_P2;PMS_P1;PMS_P2;Temp;Humidity;BMP_temperature;BMP_pressure;BME280_temperature;BME280_humidity;BME280_pressure;Samples;Min_cycle;Max_cycle;Signal;HPM_P1;HPM_P2
2022/04/24 00:01:06;;;;;;;14.60;9.78;;;;;;;10.17;89.82;100094.63;1772431;81;21228;-57
2022/04/24 00:04:12;;;;;;;11.40;8.65;;;;;;;10.21;89.67;100084.19;1772682;81;21296;-58
2022/04/24 00:07:19;;;;;;;12.33;10.13;;;;;;;10.25;89.65;100079.53;1771516;81;21252;-58
2022/04/24 00:10:25;;;;;;;12.58;9.95;;;;;;;10.29;89.56;100075.92;1772196;81;21197;-57
2022/04/24 00:13:38;;;;;;;12.53;9.80;;;;;;;10.27;89.35;100076.11;1770709;81;21619;-56
2022/04/24 00:16:41;;;;;;;12.85;9.65;;;;;;;10.29;89.46;100080.86;1773064;81;21355;-57
2022/04/24 00:19:48;;;;;;;11.90;8.93;;;;;;;10.35;89.53;100077.93;1772306;81;21158;-58
2022/04/24 00:22:55;;;;;;;11.28;9.93;;;;;;;10.40;89.42;100080.44;1773102;81;21192;-57
2022/04/24 00:26:01;;;;;;;11.68;9.75;;;;;;;10.41;89.23;100071.22;1773205;81;21388;-57
2022/04/24 00:29:08;;;;;;;12.05;9.58;;;;;;;10.41;89.16;100072.58;1773325;80;21538;-57
2022/04/24 00:32:15;;;;;;;13.25;10.08;;;;;;;10.42;88.96;100063.33;1773010;80;21169;-57
2022/04/24 00:35:22;;;;;;;12.23;9.63;;;;;;;10.41;88.90;100058.04;1771165;81;21186;-56
2022/04/24 00:38:30;;;;;;;12.37;9.98;;;;;;;10.39;88.78;100058.22;1773277;81;21194;-57
2022/04/24 00:41:36;;;;;;;10.88;9.65;;;;;;;10.38;88.83;100053.80;1773204;81;21205;-56
2022/04/24 00:44:42;;;;;;;12.60;9.93;;;;;;;10.40;88.88;100042.67;1772946;80;21201;-56
2022/04/24 00:47:51;;;;;;;12.53;9.80;;;;;;;10.41;88.95;100047.95;1773326;81;21550;-57
2022/04/24 00:50:57;;;;;;;14.68;9.75;;;;;;;10.43;88.92;100045.86;1773306;81;21194;-57
2022/04/24 00:54:03;;;;;;;13.45;10.88;;;;;;;10.43;88.93;100031.36;1757460;79;21299;-58
2022/04/24 00:57:09;;;;;;;13.45;10.70;;;;;;;10.44;89.15;100025.70;1802079;79;21296;-56
2022/04/24 01:00:15;;;;;;;12.13;10.88;;;;;;;10.45;89.21;100022.42;1802197;79;21163;-57
2022/04/24 01:03:23;;;;;;;13.35;10.95;;;;;;;10.45;89.14;100016.95;1802330;78;21250;-57
2022/04/24 01:06:30;;;;;;;11.43;10.20;;;;;;;10.44;89.26;100014.75;1802209;79;22019;-56
2022/04/24 01:09:41;;;;;;;14.25;11.33;;;;;;;10.45;89.43;100013.70;1802329;79;21335;-56
2022/04/24 01:12:48;;;;;;;16.80;12.35;;;;;;;10.50;89.57;100007.67;1802725;78;21213;-57
2022/04/24 01:15:53;;;;;;;13.68;11.40;;;;;;;10.52;89.51;100006.47;1802737;79;21169;-58
2022/04/24 01:19:00;;;;;;;16.20;11.30;;;;;;;10.50;89.41;100003.06;1802525;79;21177;-56
2022/04/24 01:22:07;;;;;;;19.73;13.03;;;;;;;10.50;89.61;99999.46;1802758;79;21256;-56
2022/04/24 01:25:15;;;;;;;15.00;12.15;;;;;;;10.55;89.80;100014.31;1802740;79;21185;-58
2022/04/24 01:28:21;;;;;;;15.38;11.85;;;;;;;10.60;89.88;100009.64;1780091;79;21236;-58
2022/04/24 01:31:28;;;;;;;15.18;11.75;;;;;;;10.64;89.85;100020.55;1802820;79;21271;-58
2022/04/24 01:34:34;;;;;;;14.55;12.03;;;;;;;10.68;89.78;100023.77;1802726;79;21153;-58
2022/04/24 01:37:41;;;;;;;16.48;12.75;;;;;;;10.73;89.82;100029.03;1802667;78;21244;-57
2022/04/24 01:40:47;;;;;;;14.68;11.80;;;;;;;10.76;89.56;100023.69;1802720;79;21196;-56
2022/04/24 01:43:53;;;;;;;14.78;11.57;;;;;;;10.75;89.36;100020.09;1779486;79;21252;-56
2022/04/24 01:46:59;;;;;;;12.68;11.25;;;;;;;10.72;89.43;100018.27;1802723;79;21212;-56
2022/04/24 01:50:07;;;;;;;18.00;12.63;;;;;;;10.71;89.50;100005.59;1780187;79;21228;-56
2022/04/24 01:53:14;;;;;;;14.95;12.10;;;;;;;10.68;89.54;99996.39;1801536;79;21200;-57
2022/04/24 01:56:20;;;;;;;15.60;11.85;;;;;;;10.68;89.90;99990.41;1802757;79;21169;-57
2022/04/24 01:59:26;;;;;;;17.42;12.60;;;;;;;10.72;90.03;99986.25;1802534;79;21240;-56
2022/04/24 02:02:32;;;;;;;16.35;12.65;;;;;;;10.74;90.08;99986.06;1802783;78;21193;-56
2022/04/24 02:05:40;;;;;;;15.75;13.38;;;;;;;10.72;90.11;99980.77;1787832;79;21298;-57
2022/04/24 02:08:47;;;;;;;18.57;12.73;;;;;;;10.74;90.20;99985.55;1764562;81;21201;-58
2022/04/24 02:11:56;;;;;;;15.98;13.30;;;;;;;10.72;90.00;99979.41;1747637;81;21351;-58
2022/04/24 02:15:02;;;;;;;17.27;13.18;;;;;;;10.66;90.03;99976.05;1764621;80;21276;-56
2022/04/24 02:18:08;;;;;;;18.17;14.45;;;;;;;10.66;90.36;99977.42;1764606;80;21205;-57
2022/04/24 02:21:14;;;;;;;18.05;14.23;;;;;;;10.68;90.65;99976.72;1764638;81;21189;-58
2022/04/24 02:24:20;;;;;;;16.30;13.72;;;;;;;10.71;90.82;99979.59;1764467;80;21272;-58
2022/04/24 02:27:26;;;;;;;18.50;13.70;;;;;;;10.71;90.79;99979.59;1764538;81;21181;-57
2022/04/24 02:30:35;;;;;;;16.95;13.78;;;;;;;10.70;90.80;99980.13;1764454;81;21172;-57
2022/04/24 02:33:42;;;;;;;22.00;17.10;;;;;;;10.70;90.74;99978.77;1747378;81;21225;-57
2022/04/24 02:36:48;;;;;;;17.30;13.98;;;;;;;10.69;90.68;99972.11;1764641;80;21477;-56
2022/04/24 02:39:55;;;;;;;17.07;13.88;;;;;;;10.66;90.71;99973.82;1764610;80;21237;-57
2022/04/24 02:43:02;;;;;;;17.87;13.78;;;;;;;10.68;90.84;99972.62;1764468;80;21236;-57
2022/04/24 02:46:09;;;;;;;16.32;13.65;;;;;;;10.65;90.68;99969.39;1763037;81;21260;-57
2022/04/24 02:49:16;;;;;;;20.17;14.68;;;;;;;10.58;90.71;99972.56;1746660;81;21174;-58
2022/04/24 02:52:23;;;;;;;21.02;15.18;;;;;;;10.52;90.75;99976.88;1770516;81;21778;-58
2022/04/24 02:55:30;;;;;;;16.97;13.68;;;;;;;10.47;90.86;99982.05;1770087;79;21188;-59
2022/04/24 02:58:38;;;;;;;16.35;13.60;;;;;;;10.39;90.83;99974.77;1770867;81;21188;-58
2022/04/24 03:01:46;;;;;;;17.15;14.68;;;;;;;10.32;90.94;99975.70;1771069;81;21129;-59
2022/04/24 03:04:53;;;;;;;17.25;15.10;;;;;;;10.26;91.08;99980.52;1770960;81;21165;-59
2022/04/24 03:08:00;;;;;;;17.02;14.58;;;;;;;10.22;91.25;99981.93;1770396;81;21201;-59
2022/04/24 03:11:06;;;;;;;20.60;14.60;;;;;;;10.18;91.48;99977.34;1770466;81;21168;-59
2022/04/24 03:14:12;;;;;;;20.20;15.20;;;;;;;10.16;91.57;99982.12;1770606;80;21169;-59
2022/04/24 03:17:18;;;;;;;18.15;14.75;;;;;;;10.12;91.67;99987.64;1770385;81;21164;-58
2022/04/24 03:20:26;;;;;;;19.05;14.68;;;;;;;10.06;91.65;99981.52;1770641;81;21475;-58
2022/04/24 03:23:31;;;;;;;16.57;14.20;;;;;;;10.02;91.84;99981.52;1771253;81;21659;-60
2022/04/24 03:26:40;;;;;;;17.30;14.20;;;;;;;10.01;92.12;99989.41;1771072;81;21157;-59
2022/04/24 03:29:45;;;;;;;16.62;14.60;;;;;;;10.03;92.35;99983.25;1744070;81;21216;-59
2022/04/24 03:32:53;;;;;;;18.67;15.83;;;;;;;10.06;92.51;99982.88;1771114;80;21252;-58
2022/04/24 03:36:01;;;;;;;19.10;15.10;;;;;;;10.08;92.49;99989.06;1771094;79;21661;-58
2022/04/24 03:39:09;;;;;;;18.02;15.23;;;;;;;10.13;92.77;99990.70;1771010;81;21189;-59
2022/04/24 03:42:19;;;;;;;18.48;15.23;;;;;;;10.22;92.70;99984.16;1771096;81;21126;-60
2022/04/24 03:45:26;;;;;;;20.70;15.58;;;;;;;10.26;92.56;99989.58;1771362;81;21168;-60
2022/04/24 03:48:34;;;;;;;18.75;15.65;;;;;;;10.28;92.52;99982.05;1771281;81;21153;-58
2022/04/24 03:51:41;;;;;;;18.23;14.73;;;;;;;10.31;92.55;99983.55;1771088;81;21239;-59
2022/04/24 03:54:47;;;;;;;19.85;15.18;;;;;;;10.38;92.74;99991.38;1771200;81;21232;-59
2022/04/24 03:57:53;;;;;;;20.40;16.57;;;;;;;10.46;92.77;99993.50;1734898;81;21728;-59
2022/04/24 04:01:01;;;;;;;18.30;15.50;;;;;;;10.52;92.61;99993.30;1735095;82;21215;-59
2022/04/24 04:04:08;;;;;;;19.07;15.35;;;;;;;10.58;92.65;99997.20;1735078;82;21188;-57
2022/04/24 04:07:09;;;;;;;21.75;16.40;;;;;;;10.65;92.78;99991.30;1735253;82;21184;-59
2022/04/24 04:10:16;;;;;;;18.55;14.95;;;;;;;10.73;92.85;99996.69;1714557;82;21326;-58
2022/04/24 04:13:24;;;;;;;19.20;15.05;;;;;;;10.83;92.90;99987.16;1754043;80;21264;-59
2022/04/24 04:16:30;;;;;;;20.88;16.50;;;;;;;10.92;92.74;99991.53;1733701;82;21340;-59
2022/04/24 04:19:37;;;;;;;16.77;14.55;;;;;;;10.97;92.47;99978.13;1766956;80;21255;-59
2022/04/24 04:22:56;;;;;;;17.48;15.18;;;;;;;11.00;92.17;99987.84;1768571;80;21216;-59
2022/04/24 04:26:03;;;;;;;20.52;15.68;;;;;;;11.01;92.04;99992.27;1761403;81;21196;-60
2022/04/24 04:29:09;;;;;;;17.70;15.00;;;;;;;11.10;92.11;99994.73;1760278;81;21232;-59
2022/04/24 04:32:16;;;;;;;18.60;14.50;;;;;;;11.23;92.01;99989.96;1760325;81;21205;-60
2022/04/24 04:35:23;;;;;;;19.95;15.98;;;;;;;11.34;91.91;99990.85;1759927;81;21205;-60
2022/04/24 04:38:30;;;;;;;18.77;15.90;;;;;;;11.47;91.56;99978.70;1759696;81;22089;-58
2022/04/24 04:41:37;;;;;;;18.45;14.28;;;;;;;11.56;91.37;99985.25;1758757;81;21766;-59
2022/04/24 04:44:43;;;;;;;21.97;15.95;;;;;;;11.68;91.24;99990.62;1759746;81;21186;-58
2022/04/24 04:47:51;;;;;;;22.45;16.00;;;;;;;11.80;91.10;99990.44;1752567;81;21396;-58
2022/04/24 04:50:59;;;;;;;15.88;14.18;;;;;;;11.98;91.03;99989.50;1757712;81;21172;-59
2022/04/24 04:54:06;;;;;;;20.35;14.68;;;;;;;12.19;90.72;99994.15;1759995;81;21232;-59
2022/04/24 04:57:12;;;;;;;18.37;15.43;;;;;;;12.36;90.12;99994.20;1754714;80;21189;-59
2022/04/24 05:00:19;;;;;;;19.15;15.55;;;;;;;12.49;89.66;99994.84;1711401;81;21194;-58
2022/04/24 05:03:26;;;;;;;20.82;15.25;;;;;;;12.55;88.78;99995.42;1745826;81;21264;-59
2022/04/24 05:06:33;;;;;;;17.65;13.98;;;;;;;12.61;88.52;99992.73;1748759;81;21240;-59
2022/04/24 05:09:38;;;;;;;17.27;14.83;;;;;;;12.71;88.15;99987.77;1745077;81;21248;-59
2022/04/24 05:12:44;;;;;;;16.67;13.50;;;;;;;12.76;87.15;99996.26;1744352;81;21182;-59
2022/04/24 05:15:51;;;;;;;18.85;14.90;;;;;;;12.84;86.85;99998.86;1743536;82;21301;-59
2022/04/24 05:18:58;;;;;;;19.50;15.50;;;;;;;12.85;85.78;99996.42;1744910;81;21272;-60
2022/04/24 05:22:08;;;;;;;20.77;15.23;;;;;;;12.77;85.22;99992.45;1738768;82;21209;-58
2022/04/24 05:25:17;;;;;;;16.57;14.40;;;;;;;12.76;85.36;100004.50;1740172;81;21705;-57
2022/04/24 05:28:23;;;;;;;19.75;13.72;;;;;;;12.84;85.37;100003.49;1735523;81;21699;-59
2022/04/24 05:31:30;;;;;;;19.05;14.18;;;;;;;12.93;84.85;100010.53;1702829;84;21173;-59
2022/04/24 05:34:37;;;;;;;16.25;13.55;;;;;;;13.04;84.52;100005.37;1744334;81;21236;-60
2022/04/24 05:37:45;;;;;;;16.30;12.43;;;;;;;13.16;83.64;100008.41;1745714;80;21213;-61
2022/04/24 05:40:52;;;;;;;17.27;12.95;;;;;;;13.26;82.60;100008.37;1744908;81;21241;-58
2022/04/24 05:43:58;;;;;;;17.80;13.62;;;;;;;13.39;81.88;100008.97;1739260;81;21441;-58
2022/04/24 05:47:05;;;;;;;19.05;12.47;;;;;;;13.50;80.87;100003.75;1742611;81;21229;-58
2022/04/24 05:50:13;;;;;;;17.92;12.37;;;;;;;13.53;79.83;99996.98;1740345;81;21328;-58
2022/04/24 05:53:20;;;;;;;16.32;12.00;;;;;;;13.58;79.28;99994.98;1745523;81;21189;-59
2022/04/24 05:56:29;;;;;;;16.27;11.40;;;;;;;13.62;78.31;99999.87;1743803;81;21351;-59
2022/04/24 05:59:37;;;;;;;14.55;12.23;;;;;;;13.65;77.72;100002.24;1747570;80;21205;-60
2022/04/24 06:02:44;;;;;;;15.48;11.63;;;;;;;13.76;77.65;100004.41;1772087;79;21189;-59
2022/04/24 06:05:53;;;;;;;14.90;10.88;;;;;;;13.98;76.94;100003.21;1773012;81;21560;-59
2022/04/24 06:09:01;;;;;;;12.85;11.38;;;;;;;14.20;76.13;100000.63;1772338;79;21208;-58
2022/04/24 06:12:06;;;;;;;16.20;12.10;;;;;;;14.44;75.16;99991.81;1772213;81;21283;-55
2022/04/24 06:15:20;;;;;;;13.25;11.03;;;;;;;14.62;74.40;99996.66;1773217;81;21220;-59
2022/04/24 06:18:26;;;;;;;15.10;10.88;;;;;;;14.70;73.27;100001.97;1754909;81;21228;-59
2022/04/24 06:21:35;;;;;;;14.40;10.72;;;;;;;14.72;72.37;100008.12;1772410;81;21184;-58
2022/04/24 06:24:43;;;;;;;14.05;10.65;;;;;;;14.76;71.53;100010.24;1772968;81;21209;-59
2022/04/24 06:27:50;;;;;;;14.50;11.28;;;;;;;14.82;71.22;100003.05;1771802;79;21245;-58
2022/04/24 06:30:56;;;;;;;12.50;10.88;;;;;;;14.93;71.21;100017.05;1769392;81;21188;-59
2022/04/24 06:34:03;;;;;;;16.35;12.00;;;;;;;15.05;70.83;100021.92;1773030;79;21193;-59
2022/04/24 06:37:12;;;;;;;15.58;11.90;;;;;;;15.08;70.32;100022.86;1772978;79;21189;-58
2022/04/24 06:40:19;;;;;;;15.18;11.80;;;;;;;15.07;70.05;100026.14;1754862;81;21233;-59
2022/04/24 06:43:26;;;;;;;16.48;11.22;;;;;;;15.13;69.60;100025.28;1773007;79;21189;-59
2022/04/24 06:46:32;;;;;;;15.23;12.13;;;;;;;15.19;68.84;100025.80;1773020;81;21173;-59
2022/04/24 06:49:39;;;;;;;13.08;10.60;;;;;;;15.26;68.15;100030.78;1773074;81;21188;-59
2022/04/24 06:52:45;;;;;;;13.48;10.65;;;;;;;15.35;67.91;100026.73;1772171;79;21200;-60
2022/04/24 06:55:56;;;;;;;13.13;9.73;;;;;;;15.44;67.28;100026.87;1769660;80;21324;-59
2022/04/24 06:59:02;;;;;;;17.55;14.33;;;;;;;15.51;66.80;100029.06;1772521;80;21245;-59
2022/04/24 07:02:09;;;;;;;14.60;11.85;;;;;;;15.67;67.16;100027.22;1735329;82;21276;-59
2022/04/24 07:05:17;;;;;;;14.75;11.95;;;;;;;15.83;66.42;100019.84;1735266;82;21772;-59
2022/04/24 07:08:24;;;;;;;13.60;11.53;;;;;;;15.92;65.82;100018.52;1735711;82;21216;-59
2022/04/24 07:11:34;;;;;;;10.85;9.38;;;;;;;16.09;64.98;100021.64;1708841;84;21217;-59
2022/04/24 07:14:41;;;;;;;13.30;10.58;;;;;;;16.27;64.18;100023.97;1691665;83;21285;-59
2022/04/24 07:17:49;;;;;;;14.63;10.85;;;;;;;16.32;63.86;100028.83;1734981;82;21248;-59
2022/04/24 07:20:56;;;;;;;24.43;19.02;;;;;;;16.41;63.95;100022.81;1735367;82;21197;-59
2022/04/24 07:24:03;;;;;;;19.02;14.78;;;;;;;16.51;63.38;100033.41;1735066;82;21443;-59
2022/04/24 07:27:10;;;;;;;17.82;13.35;;;;;;;16.53;63.18;100034.58;1706273;84;21242;-59
2022/04/24 07:30:17;;;;;;;18.45;13.58;;;;;;;16.57;63.26;100038.60;1739158;82;21204;-58
2022/04/24 07:33:23;;;;;;;16.80;12.95;;;;;;;16.56;63.15;100035.51;1740103;82;21200;-59
2022/04/24 07:36:30;;;;;;;12.37;10.20;;;;;;;16.49;63.20;100036.10;1740131;82;21792;-59
2022/04/24 07:39:37;;;;;;;12.43;10.43;;;;;;;16.42;63.60;100039.73;1740206;82;21205;-59
2022/04/24 07:43:01;;;;;;;15.75;12.65;;;;;;;16.29;63.51;100040.32;1740035;82;21200;-60
2022/04/24 07:46:08;;;;;;;14.83;12.47;;;;;;;16.25;63.79;100049.58;1740108;82;21242;-59
2022/04/24 07:49:17;;;;;;;13.08;11.22;;;;;;;16.27;63.92;100046.59;1740194;82;21197;-60
2022/04/24 07:52:26;;;;;;;14.47;10.93;;;;;;;16.24;64.01;100052.03;1740201;82;21216;-60
2022/04/24 07:55:34;;;;;;;13.45;11.33;;;;;;;16.15;63.81;100046.47;1706949;84;21237;-60
2022/04/24 07:58:40;;;;;;;15.08;10.80;;;;;;;16.04;64.12;100047.16;1705986;84;21254;-59
2022/04/24 08:01:51;;;;;;;16.48;11.08;;;;;;;15.97;64.26;100052.36;1745978;80;21575;-60
2022/04/24 08:04:58;;;;;;;14.55;10.98;;;;;;;15.90;64.60;100045.48;1781016;80;22192;-59
2022/04/24 08:08:06;;;;;;;15.20;13.22;;;;;;;15.83;64.71;100054.34;1780625;79;21856;-58
2022/04/24 08:11:14;;;;;;;19.12;12.88;;;;;;;15.69;64.98;100054.07;1780379;80;21192;-59
2022/04/24 08:14:20;;;;;;;17.92;14.50;;;;;;;15.57;65.55;100052.20;1780493;80;21256;-59
2022/04/24 08:17:30;;;;;;;14.23;11.63;;;;;;;15.44;65.89;100061.35;1781271;80;21268;-61
2022/04/24 08:20:38;;;;;;;16.42;12.68;;;;;;;15.29;65.89;100057.94;1780976;80;21213;-60
2022/04/24 08:23:46;;;;;;;21.07;16.85;;;;;;;15.17;66.07;100057.42;1763602;80;21216;-59
2022/04/24 08:26:53;;;;;;;16.70;14.35;;;;;;;15.03;66.33;100057.11;1781220;80;21335;-60
2022/04/24 08:30:01;;;;;;;16.65;13.22;;;;;;;14.88;66.48;100061.45;1780502;80;21189;-59
2022/04/24 08:33:09;;;;;;;20.90;16.23;;;;;;;14.77;66.87;100062.94;1780446;80;21906;-59
2022/04/24 08:36:16;;;;;;;20.43;14.03;;;;;;;14.65;67.21;100067.91;1780971;80;21757;-59
2022/04/24 08:39:23;;;;;;;30.92;22.45;;;;;;;14.59;67.65;100074.22;1780699;80;21248;-60
2022/04/24 08:42:30;;;;;;;19.52;12.50;;;;;;;14.55;67.88;100075.20;1782329;80;21260;-60
2022/04/24 08:45:38;;;;;;;13.70;11.45;;;;;;;14.48;67.89;100074.32;1781593;80;21216;-59
2022/04/24 08:48:48;;;;;;;19.32;14.30;;;;;;;14.47;68.13;100077.28;1780547;80;21192;-60
2022/04/24 08:51:54;;;;;;;15.83;12.58;;;;;;;14.48;68.15;100077.08;1780740;80;21316;-60
2022/04/24 08:55:02;;;;;;;15.72;12.82;;;;;;;14.51;68.19;100078.55;1762298;80;21196;-60
2022/04/24 08:58:09;;;;;;;17.90;13.48;;;;;;;14.55;68.18;100075.72;1780895;79;21212;-60
2022/04/24 09:01:17;;;;;;;28.17;18.10;;;;;;;14.60;68.07;100075.39;1781562;80;21753;-59
2022/04/24 09:04:22;;;;;;;22.32;16.85;;;;;;;14.68;68.12;100084.02;1773240;80;21217;-59
2022/04/24 09:07:30;;;;;;;19.25;13.22;;;;;;;14.74;67.94;100079.03;1749523;80;21832;-59
2022/04/24 09:10:40;;;;;;;28.35;19.52;;;;;;;14.80;67.75;100082.32;1754563;81;21252;-59
2022/04/24 09:17:16;;;;;;;18.32;13.65;;;;;;;14.86;67.22;100074.58;1752624;80;21579;-60
2022/04/24 09:20:26;;;;;;;21.70;15.78;;;;;;;14.83;67.04;100081.37;1771241;80;21217;-60
2022/04/24 09:23:44;;;;;;;20.32;14.65;;;;;;;14.81;66.99;100085.38;1771786;80;21749;-60
2022/04/24 09:27:03;;;;;;;18.70;15.28;;;;;;;14.76;67.05;100092.91;1747167;80;21806;-59
2022/04/24 09:30:15;;;;;;;22.55;17.92;;;;;;;14.69;67.01;100093.96;1753391;80;21241;-59
2022/04/24 09:33:22;;;;;;;19.48;12.68;;;;;;;14.65;67.13;100097.66;1753934;80;21193;-59
2022/04/24 09:36:32;;;;;;;18.95;13.08;;;;;;;14.63;67.23;100100.31;1741376;82;21777;-59
2022/04/24 09:39:44;;;;;;;21.17;14.60;;;;;;;14.59;67.55;100098.50;1744240;80;21563;-59
2022/04/24 09:43:03;;;;;;;17.12;13.50;;;;;;;14.58;67.84;100100.95;1770141;81;21226;-60
2022/04/24 09:46:10;;;;;;;19.35;15.30;;;;;;;14.62;67.99;100099.98;1771471;81;21794;-59
2022/04/24 09:49:19;;;;;;;20.65;14.93;;;;;;;14.65;68.13;100107.86;1771640;81;21369;-61
2022/04/24 09:52:29;;;;;;;24.43;15.72;;;;;;;14.73;67.95;100106.28;1771039;81;21238;-60
2022/04/24 09:55:38;;;;;;;19.82;15.28;;;;;;;14.86;67.69;100107.66;1714986;82;21869;-59
2022/04/24 09:58:45;;;;;;;17.20;13.70;;;;;;;15.03;66.90;100100.15;1764765;80;21196;-60
2022/04/24 10:01:52;;;;;;;20.32;15.72;;;;;;;15.29;66.34;100106.72;1718565;81;21363;-60
2022/04/24 10:05:06;;;;;;;20.48;13.68;;;;;;;15.51;65.84;100111.83;1714252;82;21222;-60
2022/04/24 10:08:14;;;;;;;19.60;14.58;;;;;;;15.73;65.12;100110.52;1733465;83;21227;-60
2022/04/24 10:11:22;;;;;;;15.65;13.83;;;;;;;15.97;64.50;100114.48;1718697;83;21624;-60
2022/04/24 10:14:29;;;;;;;21.42;12.13;;;;;;;16.11;63.89;100108.70;1715974;83;21208;-60
2022/04/24 10:18:16;;;;;;;15.70;12.43;;;;;;;16.34;63.21;100102.14;1716648;83;21256;-60
2022/04/24 10:21:43;;;;;;;18.75;13.15;;;;;;;16.61;62.05;100107.02;1691198;84;21212;-60
2022/04/24 10:24:53;;;;;;;19.45;14.68;;;;;;;16.86;61.09;100107.92;1762794;81;21189;-60
2022/04/24 10:27:59;;;;;;;16.67;12.35;;;;;;;17.09;60.83;100110.11;1763305;81;21193;-59
2022/04/24 10:31:06;;;;;;;18.57;13.48;;;;;;;17.18;60.10;100107.37;1763087;81;22069;-60
2022/04/24 10:34:14;;;;;;;14.13;11.88;;;;;;;17.19;59.52;100103.52;1763619;80;21213;-60
2022/04/24 10:37:22;;;;;;;19.98;12.80;;;;;;;17.32;59.59;100105.66;1759284;81;21203;-60
2022/04/24 10:40:29;;;;;;;21.25;13.83;;;;;;;17.58;59.26;100110.97;1687868;84;21250;-60
2022/04/24 10:43:48;;;;;;;21.17;11.88;;;;;;;17.85;58.87;100110.18;1734299;82;21192;-60
2022/04/24 10:46:57;;;;;;;17.32;11.97;;;;;;;18.11;58.24;100106.27;1727346;82;21185;-60
2022/04/24 10:50:18;;;;;;;17.45;12.00;;;;;;;18.24;57.42;100109.72;1742970;81;21213;-60
2022/04/24 10:53:26;;;;;;;19.10;13.13;;;;;;;18.36;56.59;100110.61;1760659;81;21335;-60
2022/04/24 10:56:35;;;;;;;15.40;9.83;;;;;;;18.43;56.80;100114.19;1734268;82;22093;-61
2022/04/24 10:59:59;;;;;;;11.95;9.30;;;;;;;18.46;56.65;100119.27;1735177;82;21248;-60
2022/04/24 11:03:21;;;;;;;17.40;9.53;;;;;;;18.44;55.88;100117.27;1735045;82;21741;-60
2022/04/24 11:06:35;;;;;;;17.67;9.08;;;;;;;18.40;55.26;100113.28;1708328;84;21241;-61
2022/04/24 11:09:44;;;;;;;14.45;9.48;;;;;;;18.38;55.05;100111.80;1742644;81;21209;-60
2022/04/24 11:12:54;;;;;;;15.15;9.55;;;;;;;18.43;54.49;100115.58;1741167;81;21205;-60
2022/04/24 11:16:00;;;;;;;12.43;9.90;;;;;;;18.47;54.07;100111.25;1741520;82;21260;-61
2022/04/24 11:19:06;;;;;;;14.87;9.63;;;;;;;18.52;54.13;100115.55;1741214;81;21241;-61
2022/04/24 11:22:19;;;;;;;17.25;11.20;;;;;;;18.63;54.14;100111.16;1742444;79;21193;-60
2022/04/24 11:25:30;;;;;;;14.38;10.55;;;;;;;18.72;53.61;100113.38;1767642;79;21724;-61
2022/04/24 11:28:54;;;;;;;14.93;10.18;;;;;;;18.72;53.49;100113.38;1742547;79;21773;-61
2022/04/24 11:32:19;;;;;;;14.87;10.25;;;;;;;18.81;53.34;100119.42;1757570;79;21260;-61
2022/04/24 11:35:28;;;;;;;16.30;11.10;;;;;;;18.84;53.10;100112.88;1771066;79;21244;-60
2022/04/24 11:38:37;;;;;;;15.98;10.45;;;;;;;18.79;53.33;100111.90;1771766;81;21359;-60
2022/04/24 11:41:46;;;;;;;14.23;10.35;;;;;;;18.63;54.04;100109.78;1772115;81;21256;-60
2022/04/24 11:51:41;;;;;;;15.00;10.50;;;;;;;18.22;54.57;100115.20;1772735;81;21335;-61
2022/04/24 11:54:47;;;;;;;15.20;10.13;;;;;;;18.09;54.77;100112.05;1772089;81;21244;-60
2022/04/24 11:58:08;;;;;;;17.90;12.07;;;;;;;18.01;55.36;100115.13;1771537;80;21200;-59
2022/04/24 12:01:18;;;;;;;17.50;8.80;;;;;;;17.96;56.04;100116.34;1764672;81;21189;-60
2022/04/24 12:04:28;;;;;;;14.38;9.88;;;;;;;17.85;56.06;100117.10;1770946;80;21260;-61
2022/04/24 12:07:40;;;;;;;18.40;11.15;;;;;;;17.72;56.41;100114.47;1771141;80;21205;-61
2022/04/24 12:10:51;;;;;;;14.87;10.48;;;;;;;17.57;57.20;100121.73;1770124;81;21323;-60
2022/04/24 12:14:16;;;;;;;13.08;8.45;;;;;;;17.54;57.50;100118.57;1759700;80;21316;-61
2022/04/24 12:17:21;;;;;;;16.12;8.68;;;;;;;17.45;57.63;100128.24;1739366;80;21774;-61
2022/04/24 12:20:28;;;;;;;17.02;9.33;;;;;;;17.39;57.98;100125.83;1740842;82;21172;-60
2022/04/24 12:23:35;;;;;;;21.40;11.25;;;;;;;17.32;57.55;100133.84;1740895;81;21284;-61
2022/04/24 12:26:41;;;;;;;17.90;11.63;;;;;;;17.17;56.64;100125.05;1739711;82;21232;-59
2022/04/24 12:29:54;;;;;;;17.98;10.72;;;;;;;17.05;57.05;100133.21;1740745;82;21276;-59
2022/04/24 12:33:14;;;;;;;18.37;9.50;;;;;;;16.92;57.22;100136.61;1737934;81;21209;-59
2022/04/24 12:36:21;;;;;;;16.77;9.43;;;;;;;16.78;57.93;100144.12;1688910;84;21244;-59
2022/04/24 12:39:33;;;;;;;18.40;8.80;;;;;;;16.73;58.28;100139.80;1700686;84;21225;-59
2022/04/24 12:42:41;;;;;;;13.05;8.43;;;;;;;16.63;59.03;100133.06;1707072;83;21200;-59
2022/04/24 12:45:47;;;;;;;17.70;9.25;;;;;;;16.59;59.55;100146.47;1754061;81;21185;-59
2022/04/24 12:49:00;;;;;;;17.15;8.25;;;;;;;16.56;59.68;100149.67;1754839;81;21205;-59
2022/04/24 12:52:07;;;;;;;18.35;8.88;;;;;;;16.54;59.97;100146.27;1754557;81;21201;-59
2022/04/24 12:55:16;;;;;;;20.12;8.85;;;;;;;16.52;60.13;100160.87;1710477;83;21304;-59
2022/04/24 12:58:28;;;;;;;19.42;9.38;;;;;;;16.52;60.24;100158.63;1753789;81;21371;-60
2022/04/24 13:01:34;;;;;;;17.05;8.73;;;;;;;16.53;60.02;100163.08;1743710;80;21996;-59
2022/04/24 13:04:44;;;;;;;13.00;8.45;;;;;;;16.54;59.89;100163.41;1764299;81;21189;-60
2022/04/24 13:07:49;;;;;;;16.15;8.20;;;;;;;16.54;59.60;100171.70;1749356;81;21219;-60
2022/04/24 13:10:55;;;;;;;19.12;8.78;;;;;;;16.53;59.27;100176.89;1751458;81;21210;-59
2022/04/24 13:14:02;;;;;;;20.45;8.80;;;;;;;16.49;59.43;100172.33;1762057;81;21224;-60
2022/04/24 13:20:36;;;;;;;17.48;8.15;;;;;;;16.40;60.01;100186.91;1745644;81;21749;-60
2022/04/24 13:23:43;;;;;;;19.05;9.30;;;;;;;16.30;60.34;100180.98;1744034;81;21225;-60
2022/04/24 13:26:49;;;;;;;16.42;9.53;;;;;;;16.22;60.79;100190.06;1754610;81;21185;-60
2022/04/24 13:29:57;;;;;;;16.55;7.72;;;;;;;16.19;61.29;100180.80;1746302;81;21241;-60
2022/04/24 13:33:03;;;;;;;20.17;8.60;;;;;;;16.21;61.23;100196.11;1750587;81;21335;-59
2022/04/24 13:36:13;;;;;;;19.77;10.18;;;;;;;16.16;60.93;100191.77;1772595;79;21326;-60
2022/04/24 13:39:22;;;;;;;15.88;9.80;;;;;;;16.12;61.11;100198.80;1797945;79;21338;-60
2022/04/24 13:42:28;;;;;;;20.10;11.60;;;;;;;16.09;61.21;100206.11;1800446;79;21820;-59
2022/04/24 13:45:35;;;;;;;18.05;8.60;;;;;;;16.09;60.98;100203.89;1800039;79;21195;-60
2022/04/24 13:48:44;;;;;;;18.42;8.40;;;;;;;16.08;61.19;100207.70;1799547;79;21192;-61
2022/04/24 13:51:51;;;;;;;14.40;7.28;;;;;;;16.06;61.47;100202.39;1800124;79;21763;-62
2022/04/24 13:54:53;;;;;;;18.12;7.95;;;;;;;16.05;61.42;100207.61;1779081;79;21319;-60
2022/04/24 13:57:46;;;;;;;14.73;7.87;;;;;;;16.05;61.35;100217.80;1764934;81;21192;-60
2022/04/24 14:00:54;;;;;;;15.83;7.53;;;;;;;16.01;61.50;100204.98;1773250;79;21180;-59
2022/04/24 14:04:00;;;;;;;17.45;7.45;;;;;;;15.95;61.57;100205.81;1757900;81;21769;-60
2022/04/24 14:07:07;;;;;;;14.35;8.43;;;;;;;15.90;61.85;100201.47;1758615;80;21189;-61
2022/04/24 14:10:14;;;;;;;17.17;8.38;;;;;;;15.92;62.00;100197.14;1759289;81;21201;-61
2022/04/24 14:13:20;;;;;;;10.75;6.58;;;;;;;16.04;62.07;100204.55;1758170;81;22046;-61
2022/04/24 14:16:25;;;;;;;20.25;7.80;;;;;;;16.19;61.46;100206.52;1759860;81;21434;-60
2022/04/24 14:19:31;;;;;;;19.17;8.70;;;;;;;16.47;60.95;100197.98;1759569;81;21196;-60
2022/04/24 14:22:40;;;;;;;13.98;7.33;;;;;;;16.86;60.42;100190.88;1760003;80;21248;-62
2022/04/24 14:25:48;;;;;;;16.27;7.05;;;;;;;17.30;59.40;100189.97;1759521;81;21192;-61
2022/04/24 14:28:54;;;;;;;11.33;6.30;;;;;;;17.87;57.77;100186.94;1764059;80;21235;-61
2022/04/24 14:32:01;;;;;;;15.83;6.35;;;;;;;18.09;56.84;100189.62;1777370;80;21212;-61
2022/04/24 14:35:12;;;;;;;12.28;6.60;;;;;;;18.20;55.69;100179.69;1790196;79;21158;-61